createdAt,value
2018-12-20T00:01:14.442Z,8.17
2018-12-20T00:03:41.512Z,8.13
2018-12-20T00:06:08.577Z,7.57
2018-12-20T00:08:35.697Z,8.40
2018-12-20T00:11:02.756Z,8.60
2018-12-20T00:13:29.837Z,7.97
2018-12-20T00:15:56.916Z,8.87
2018-12-20T00:18:24.019Z,8.17
2018-12-20T00:20:51.084Z,8.33
2018-12-20T00:23:18.178Z,8.37
2018-12-20T00:25:45.347Z,8.67
2018-12-20T00:28:12.410Z,8.03
2018-12-20T00:30:39.481Z,7.77
2018-12-20T00:33:06.602Z,8.80
2018-12-20T00:35:33.796Z,8.37
2018-12-20T00:38:00.779Z,8.40
2018-12-20T00:40:27.918Z,9.23
2018-12-20T00:42:55.077Z,8.37
2018-12-20T00:45:22.105Z,9.10
2018-12-20T00:47:49.190Z,9.17
2018-12-20T00:50:16.417Z,8.93
2018-12-20T00:52:43.413Z,8.60
2018-12-20T00:55:10.552Z,9.20
2018-12-20T00:57:37.546Z,8.53
2018-12-20T01:00:07.460Z,9.27
2018-12-20T01:02:34.445Z,8.57
2018-12-20T01:05:01.424Z,8.90
2018-12-20T01:07:28.505Z,8.40
2018-12-20T01:09:55.616Z,8.97
2018-12-20T01:12:22.808Z,8.77
2018-12-20T01:14:49.795Z,9.17
2018-12-20T01:17:18.450Z,9.07
2018-12-20T01:19:44.124Z,8.77
2018-12-20T01:22:11.132Z,8.70
2018-12-20T01:24:38.238Z,8.77
2018-12-20T01:27:05.296Z,8.70
2018-12-20T01:29:32.444Z,8.17
2018-12-20T01:31:59.630Z,10.03
2018-12-20T01:34:26.647Z,9.67
2018-12-20T01:36:53.652Z,9.53
2018-12-20T01:39:20.828Z,9.07
2018-12-20T01:41:47.825Z,9.87
2018-12-20T01:44:14.876Z,9.97
2018-12-20T01:46:41.951Z,8.90
2018-12-20T01:49:09.040Z,9.37
2018-12-20T01:51:36.122Z,9.40
2018-12-20T01:54:03.191Z,9.67
2018-12-20T01:56:30.345Z,9.80
2018-12-20T01:58:57.367Z,9.17
2018-12-20T02:01:24.570Z,8.73
2018-12-20T02:03:51.652Z,9.43
2018-12-20T02:06:18.622Z,10.17
2018-12-20T02:08:45.712Z,9.50
2018-12-20T02:11:12.769Z,9.73
2018-12-20T02:13:40.005Z,9.87
2018-12-20T02:16:07.073Z,9.03
2018-12-20T02:18:34.293Z,9.83
2018-12-20T02:21:01.192Z,9.40
2018-12-20T02:23:28.278Z,10.43
2018-12-20T02:25:55.358Z,9.27
2018-12-20T02:28:22.540Z,9.40
2018-12-20T02:30:49.552Z,10.27
2018-12-20T02:33:16.649Z,8.90
2018-12-20T02:35:43.731Z,9.73
2018-12-20T02:38:10.863Z,9.83
2018-12-20T02:40:38.032Z,9.90
2018-12-20T02:43:04.972Z,10.67
2018-12-20T02:45:32.296Z,10.60
2018-12-20T02:47:59.223Z,9.90
2018-12-20T02:50:26.327Z,9.07
2018-12-20T02:52:53.557Z,10.43
2018-12-20T02:55:20.498Z,9.97
2018-12-20T02:57:47.585Z,10.10
2018-12-20T03:00:14.687Z,10.33
2018-12-20T03:02:41.863Z,10.90
2018-12-20T03:05:08.973Z,9.40
2018-12-20T03:07:36.025Z,10.40
2018-12-20T03:10:03.169Z,9.73
2018-12-20T03:12:30.338Z,10.43
2018-12-20T03:14:57.468Z,10.17
2018-12-20T03:17:24.407Z,10.13
2018-12-20T03:19:51.674Z,10.27
2018-12-20T03:22:18.768Z,10.20
2018-12-20T03:24:45.649Z,10.03
2018-12-20T03:27:12.840Z,9.77
2018-12-20T03:29:39.962Z,11.13
2018-12-20T03:32:06.955Z,10.77
2018-12-20T03:34:34.052Z,10.20
2018-12-20T03:37:01.232Z,10.27
2018-12-20T03:39:28.233Z,10.73
2018-12-20T03:41:55.344Z,10.13
2018-12-20T03:44:22.396Z,10.77
2018-12-20T03:46:49.528Z,10.47
2018-12-20T03:49:16.603Z,10.07
2018-12-20T03:51:43.681Z,10.20
2018-12-20T03:54:17.735Z,10.77
2018-12-20T03:56:44.674Z,10.33
2018-12-20T03:59:11.714Z,11.00
2018-12-20T04:01:38.846Z,11.03
2018-12-20T04:04:05.892Z,12.27
2018-12-20T04:06:32.950Z,11.53
2018-12-20T04:09:00.133Z,10.30
2018-12-20T04:11:27.216Z,11.97
2018-12-20T04:13:54.399Z,11.53
2018-12-20T04:16:21.397Z,10.83
2018-12-20T04:18:48.642Z,12.03
2018-12-20T04:21:15.862Z,11.20
2018-12-20T04:23:42.807Z,12.07
2018-12-20T04:26:09.813Z,10.80
2018-12-20T04:28:36.821Z,10.43
2018-12-20T04:31:03.921Z,10.47
2018-12-20T04:33:30.993Z,10.63
2018-12-20T04:35:58.050Z,11.73
2018-12-20T04:38:25.276Z,11.03
2018-12-20T04:40:52.434Z,11.10
2018-12-20T04:43:19.337Z,10.73
2018-12-20T04:45:46.834Z,10.73
2018-12-20T04:48:14.120Z,11.40
2018-12-20T04:50:41.208Z,10.77
2018-12-20T04:53:08.305Z,11.70
2018-12-20T04:55:35.369Z,11.30
2018-12-20T04:58:02.421Z,11.37
2018-12-20T05:00:29.483Z,11.33
2018-12-20T05:02:56.580Z,10.20
2018-12-20T05:05:23.631Z,11.20
2018-12-20T05:07:50.732Z,11.27
2018-12-20T05:10:17.913Z,11.13
2018-12-20T05:12:45.174Z,11.10
2018-12-20T05:15:12.134Z,11.13
2018-12-20T05:17:39.251Z,11.73
2018-12-20T05:20:06.313Z,11.10
2018-12-20T05:22:33.381Z,11.23
2018-12-20T05:25:00.453Z,11.40
2018-12-20T05:27:27.659Z,11.37
2018-12-20T05:29:54.636Z,11.90
2018-12-20T05:32:21.871Z,11.73
2018-12-20T05:34:49.024Z,11.70
2018-12-20T05:37:16.040Z,12.40
2018-12-20T05:39:43.142Z,10.33
2018-12-20T05:42:10.364Z,11.10
2018-12-20T05:44:37.215Z,11.60
2018-12-20T05:47:04.307Z,11.10
2018-12-20T05:49:31.415Z,11.53
2018-12-20T05:51:58.468Z,12.03
2018-12-20T05:54:25.670Z,10.27
2018-12-20T05:56:52.661Z,11.03
2018-12-20T05:59:19.859Z,11.70
2018-12-20T06:01:46.999Z,11.13
2018-12-20T06:04:13.922Z,9.97
2018-12-20T06:06:41.204Z,10.70
2018-12-20T06:09:08.107Z,10.50
2018-12-20T06:11:35.269Z,10.77
2018-12-20T06:14:02.601Z,10.30
2018-12-20T06:16:29.404Z,12.13
2018-12-20T06:18:56.533Z,10.90
2018-12-20T06:21:23.774Z,11.33
2018-12-20T06:23:50.736Z,11.73
2018-12-20T06:26:17.808Z,10.80
2018-12-20T06:28:44.890Z,10.47
2018-12-20T06:31:11.989Z,11.27
2018-12-20T06:33:39.062Z,10.53
2018-12-20T06:36:06.133Z,11.27
2018-12-20T06:38:33.207Z,10.80
2018-12-20T06:41:00.283Z,10.90
2018-12-20T06:43:28.395Z,12.57
2018-12-20T06:45:55.478Z,10.73
2018-12-20T06:48:22.543Z,11.57
2018-12-20T06:50:49.613Z,11.77
2018-12-20T06:53:16.697Z,11.23
2018-12-20T06:55:43.742Z,11.20
2018-12-20T06:58:10.848Z,11.83
2018-12-20T07:00:37.932Z,11.17
2018-12-20T07:03:04.985Z,10.30
2018-12-20T07:05:32.080Z,11.23
2018-12-20T07:07:59.177Z,12.03
2018-12-20T07:10:26.272Z,10.37
2018-12-20T07:12:53.546Z,11.20
2018-12-20T07:15:20.624Z,11.23
2018-12-20T07:17:47.697Z,10.43
2018-12-20T07:20:15.484Z,11.43
2018-12-20T07:22:42.546Z,11.43
2018-12-20T07:25:09.613Z,10.73
2018-12-20T07:27:36.657Z,10.53
2018-12-20T07:30:05.166Z,11.13
2018-12-20T07:32:32.225Z,10.43
2018-12-20T07:34:59.305Z,11.17
2018-12-20T07:37:26.380Z,10.70
2018-12-20T07:39:53.441Z,11.03
2018-12-20T07:42:20.613Z,11.10
2018-12-20T07:44:47.789Z,11.77
2018-12-20T07:47:14.806Z,11.77
2018-12-20T07:49:41.893Z,11.10
2018-12-20T07:52:08.957Z,10.23
2018-12-20T07:54:36.017Z,10.30
2018-12-20T07:57:03.078Z,10.43
2018-12-20T07:59:30.153Z,11.43
2018-12-20T08:01:57.231Z,11.10
2018-12-20T08:04:24.312Z,11.23
2018-12-20T08:06:51.392Z,10.83
2018-12-20T08:09:18.448Z,11.27
2018-12-20T08:11:52.141Z,11.33
2018-12-20T08:14:19.253Z,11.00
2018-12-20T08:16:46.410Z,10.80
2018-12-20T08:19:13.457Z,11.73
2018-12-20T08:21:40.538Z,11.50
2018-12-20T08:24:07.657Z,10.50
2018-12-20T08:26:34.757Z,11.23
2018-12-20T08:29:01.834Z,11.03
2018-12-20T08:31:28.934Z,10.53
2018-12-20T08:33:55.995Z,12.40
2018-12-20T08:36:23.041Z,10.87
2018-12-20T08:38:50.110Z,11.00
2018-12-20T08:41:17.177Z,10.47
2018-12-20T08:43:44.236Z,11.30
2018-12-20T08:46:11.342Z,11.67
2018-12-20T08:48:38.387Z,12.13
2018-12-20T08:51:05.477Z,11.60
2018-12-20T08:53:32.859Z,10.87
2018-12-20T08:55:59.926Z,12.30
2018-12-20T08:58:26.994Z,11.57
2018-12-20T09:00:54.077Z,11.73
2018-12-20T09:03:21.149Z,11.63
2018-12-20T09:05:48.232Z,11.30
2018-12-20T09:08:15.300Z,11.37
2018-12-20T09:10:43.301Z,11.63
2018-12-20T09:13:10.365Z,11.40
2018-12-20T09:15:37.841Z,12.10
2018-12-20T09:18:04.927Z,10.87
2018-12-20T09:20:32.907Z,12.47
2018-12-20T09:22:59.234Z,11.97
2018-12-20T09:25:26.293Z,11.10
2018-12-20T09:27:53.384Z,11.70
2018-12-20T09:30:20.464Z,12.20
2018-12-20T09:32:47.547Z,12.07
2018-12-20T09:35:14.609Z,11.43
2018-12-20T09:37:41.688Z,11.40
2018-12-20T09:40:08.751Z,11.47
2018-12-20T09:42:35.825Z,11.07
2018-12-20T09:45:03.010Z,10.37
2018-12-20T09:47:35.819Z,11.57
2018-12-20T09:50:03.297Z,12.03
2018-12-20T09:52:30.385Z,10.67
2018-12-20T09:54:57.437Z,11.90
2018-12-20T09:57:24.568Z,12.50
2018-12-20T09:59:52.141Z,11.80
2018-12-20T10:02:19.994Z,11.70
2018-12-20T10:04:47.792Z,11.23
2018-12-20T10:07:15.447Z,11.90
2018-12-20T10:09:42.514Z,10.83
2018-12-20T10:12:09.625Z,12.10
2018-12-20T10:14:36.914Z,11.00
2018-12-20T10:17:04.479Z,10.73
2018-12-20T10:19:31.838Z,10.60
2018-12-20T10:21:59.265Z,10.97
2018-12-20T10:24:26.349Z,10.37
2018-12-20T10:26:53.426Z,11.17
2018-12-20T10:29:21.206Z,11.13
2018-12-20T10:31:48.330Z,10.97
2018-12-20T10:34:15.393Z,10.50
2018-12-20T10:36:42.470Z,10.80
2018-12-20T10:39:09.530Z,11.10
2018-12-20T10:41:36.956Z,10.40
2018-12-20T10:44:04.239Z,9.83
2018-12-20T10:46:31.341Z,10.23
2018-12-20T10:48:58.411Z,10.07
2018-12-20T10:51:25.515Z,10.63
2018-12-20T10:53:53.145Z,10.80
2018-12-20T10:56:20.184Z,10.83
2018-12-20T10:58:47.269Z,10.37
2018-12-20T11:01:20.193Z,10.90
2018-12-20T11:03:47.293Z,10.63
2018-12-20T11:06:20.368Z,10.30
2018-12-20T11:08:53.082Z,11.33
2018-12-20T11:11:20.214Z,10.67
2018-12-20T11:13:47.849Z,11.27
2018-12-20T11:16:14.963Z,11.07
2018-12-20T11:18:42.044Z,11.23
2018-12-20T11:21:09.129Z,10.97
2018-12-20T11:23:36.209Z,10.97
2018-12-20T11:26:03.333Z,10.93
2018-12-20T11:28:30.398Z,11.67
2018-12-20T11:30:57.470Z,11.17
2018-12-20T11:33:24.542Z,10.87
2018-12-20T11:35:51.653Z,10.53
2018-12-20T11:38:18.741Z,10.90
2018-12-20T11:40:45.828Z,10.40
2018-12-20T11:43:12.942Z,11.00
2018-12-20T11:45:40.036Z,10.63
2018-12-20T11:48:07.109Z,11.03
2018-12-20T11:50:34.242Z,11.20
2018-12-20T11:53:01.337Z,10.97
2018-12-20T11:55:28.405Z,11.80
2018-12-20T11:57:55.521Z,11.40
2018-12-20T12:00:22.584Z,12.93
2018-12-20T12:02:49.693Z,11.50
2018-12-20T12:05:16.754Z,13.83
2018-12-20T12:07:43.838Z,10.40
2018-12-20T12:10:10.928Z,13.85
2018-12-20T12:12:38.369Z,12.80
2018-12-20T12:15:06.752Z,12.17
2018-12-20T12:17:33.894Z,11.87
2018-12-20T12:20:01.793Z,11.93
2018-12-20T12:22:28.904Z,11.40
2018-12-20T12:24:56.950Z,11.73
2018-12-20T12:27:24.129Z,11.30
2018-12-20T12:29:51.258Z,12.40
2018-12-20T12:32:18.338Z,11.70
2018-12-20T12:34:45.796Z,11.73
2018-12-20T12:37:12.910Z,13.43
2018-12-20T12:39:40.067Z,13.70
2018-12-20T12:42:07.170Z,12.77
2018-12-20T12:44:34.262Z,12.57
2018-12-20T12:47:01.365Z,12.13
